sensor_id;sensor_type;location;lat;lon;timestamp;pressure;altitude;pressure_sealevel;temperature;humidity
40788;BME280;26497;52.494;7.546;2022-09-09T00:00:55;100158.59;;;19.29;71.78
40788;BME280;26497;52.494;7.546;2022-09-09T00:03:27;100145.28;;;19.28;71.22
40788;BME280;26497;52.494;7.546;2022-09-09T00:06:01;100150.25;;;19.17;71.01
40788;BME280;26497;52.494;7.546;2022-09-09T00:08:36;100143.47;;;19.09;71.38
40788;BME280;26497;52.494;7.546;2022-09-09T00:11:07;100136.56;;;19.04;71.78
40788;BME280;26497;52.494;7.546;2022-09-09T00:13:39;100131.97;;;19.07;71.44
40788;BME280;26497;52.494;7.546;2022-09-09T00:16:09;100128.69;;;19.00;71.10
40788;BME280;26497;52.494;7.546;2022-09-09T00:18:48;100129.13;;;18.90;71.17
40788;BME280;26497;52.494;7.546;2022-09-09T00:21:17;100125.84;;;18.83;71.07
40788;BME280;26497;52.494;7.546;2022-09-09T00:23:46;100118.50;;;18.88;70.92
40788;BME280;26497;52.494;7.546;2022-09-09T00:26:19;100115.16;;;18.83;71.22
40788;BME280;26497;52.494;7.546;2022-09-09T00:28:52;100120.91;;;18.74;71.81
40788;BME280;26497;52.494;7.546;2022-09-09T00:31:25;100119.81;;;18.78;71.70
40788;BME280;26497;52.494;7.546;2022-09-09T00:33:53;100133.81;;;18.84;72.36
40788;BME280;26497;52.494;7.546;2022-09-09T00:36:22;100126.47;;;18.90;73.11
40788;BME280;26497;52.494;7.546;2022-09-09T00:38:55;100126.47;;;18.90;73.94
40788;BME280;26497;52.494;7.546;2022-09-09T00:41:28;100132.75;;;19.09;73.88
40788;BME280;26497;52.494;7.546;2022-09-09T00:44:02;100124.97;;;19.24;73.80
40788;BME280;26497;52.494;7.546;2022-09-09T00:46:43;100128.56;;;19.23;73.99
40788;BME280;26497;52.494;7.546;2022-09-09T00:49:19;100130.97;;;19.29;74.26
40788;BME280;26497;52.494;7.546;2022-09-09T00:51:51;100128.16;;;19.32;74.21
40788;BME280;26497;52.494;7.546;2022-09-09T00:54:28;100131.16;;;19.45;74.10
40788;BME280;26497;52.494;7.546;2022-09-09T00:57:07;100129.84;;;19.54;73.78
40788;BME280;26497;52.494;7.546;2022-09-09T00:59:45;100132.47;;;19.55;73.78
40788;BME280;26497;52.494;7.546;2022-09-09T01:02:16;100127.84;;;19.59;73.65
40788;BME280;26497;52.494;7.546;2022-09-09T01:04:44;100124.53;;;19.73;73.09
40788;BME280;26497;52.494;7.546;2022-09-09T01:07:14;100120.91;;;19.74;72.91
40788;BME280;26497;52.494;7.546;2022-09-09T01:09:50;100122.38;;;19.81;72.84
40788;BME280;26497;52.494;7.546;2022-09-09T01:12:25;100126.69;;;19.84;72.48
40788;BME280;26497;52.494;7.546;2022-09-09T01:14:56;100119.84;;;19.78;72.38
40788;BME280;26497;52.494;7.546;2022-09-09T01:17:25;100115.28;;;19.80;72.17
40788;BME280;26497;52.494;7.546;2022-09-09T01:20:02;100114.53;;;19.77;72.05
40788;BME280;26497;52.494;7.546;2022-09-09T01:22:34;100106.00;;;19.68;71.81
40788;BME280;26497;52.494;7.546;2022-09-09T01:25:17;100112.53;;;19.63;71.94
40788;BME280;26497;52.494;7.546;2022-09-09T01:27:47;100111.41;;;19.48;72.60
40788;BME280;26497;52.494;7.546;2022-09-09T01:30:15;100114.09;;;19.48;72.77
40788;BME280;26497;52.494;7.546;2022-09-09T01:32:44;100115.72;;;19.31;73.47
40788;BME280;26497;52.494;7.546;2022-09-09T01:35:15;100114.66;;;19.35;73.52
40788;BME280;26497;52.494;7.546;2022-09-09T01:37:44;100117.00;;;19.43;73.49
40788;BME280;26497;52.494;7.546;2022-09-09T01:40:11;100116.25;;;19.39;73.74
40788;BME280;26497;52.494;7.546;2022-09-09T01:42:38;100111.19;;;19.33;74.16
40788;BME280;26497;52.494;7.546;2022-09-09T01:45:08;100110.84;;;19.41;74.25
40788;BME280;26497;52.494;7.546;2022-09-09T01:47:35;100116.91;;;19.44;73.87
40788;BME280;26497;52.494;7.546;2022-09-09T01:50:02;100122.63;;;19.56;73.52
40788;BME280;26497;52.494;7.546;2022-09-09T01:52:29;100119.03;;;19.57;73.31
40788;BME280;26497;52.494;7.546;2022-09-09T01:54:57;100118.06;;;19.58;72.96
40788;BME280;26497;52.494;7.546;2022-09-09T01:57:26;100119.31;;;19.51;72.98
40788;BME280;26497;52.494;7.546;2022-09-09T02:00:00;100119.66;;;19.43;73.03
40788;BME280;26497;52.494;7.546;2022-09-09T02:02:33;100122.25;;;19.44;72.95
40788;BME280;26497;52.494;7.546;2022-09-09T02:05:12;100121.53;;;19.41;72.93
40788;BME280;26497;52.494;7.546;2022-09-09T02:07:44;100123.56;;;19.36;73.41
40788;BME280;26497;52.494;7.546;2022-09-09T02:10:16;100127.84;;;19.40;73.74
40788;BME280;26497;52.494;7.546;2022-09-09T02:12:46;100132.75;;;19.49;73.38
40788;BME280;26497;52.494;7.546;2022-09-09T02:15:17;100129.91;;;19.33;73.79
40788;BME280;26497;52.494;7.546;2022-09-09T02:17:47;100133.38;;;19.35;74.22
40788;BME280;26497;52.494;7.546;2022-09-09T02:20:16;100133.03;;;19.43;74.00
40788;BME280;26497;52.494;7.546;2022-09-09T02:22:45;100133.09;;;19.41;74.16
40788;BME280;26497;52.494;7.546;2022-09-09T02:25:15;100136.41;;;19.47;73.77
40788;BME280;26497;52.494;7.546;2022-09-09T02:27:45;100139.75;;;19.33;74.15
40788;BME280;26497;52.494;7.546;2022-09-09T02:30:13;100134.69;;;19.06;75.07
40788;BME280;26497;52.494;7.546;2022-09-09T02:32:40;100138.56;;;18.98;75.25
40788;BME280;26497;52.494;7.546;2022-09-09T02:35:12;100136.88;;;18.96;75.14
40788;BME280;26497;52.494;7.546;2022-09-09T02:37:41;100134.88;;;18.80;75.82
40788;BME280;26497;52.494;7.546;2022-09-09T02:40:10;100138.47;;;18.79;75.87
40788;BME280;26497;52.494;7.546;2022-09-09T02:42:40;100139.69;;;18.72;75.65
40788;BME280;26497;52.494;7.546;2022-09-09T02:45:08;100138.41;;;18.81;74.82
40788;BME280;26497;52.494;7.546;2022-09-09T02:47:37;100146.09;;;18.89;74.37
40788;BME280;26497;52.494;7.546;2022-09-09T02:50:12;100147.09;;;18.86;74.12
40788;BME280;26497;52.494;7.546;2022-09-09T02:52:46;100142.72;;;18.63;75.43
40788;BME280;26497;52.494;7.546;2022-09-09T02:55:18;100144.38;;;18.65;75.33
40788;BME280;26497;52.494;7.546;2022-09-09T02:57:48;100149.81;;;18.64;75.41
40788;BME280;26497;52.494;7.546;2022-09-09T03:00:21;100157.31;;;18.76;74.97
40788;BME280;26497;52.494;7.546;2022-09-09T03:02:49;100155.81;;;18.69;74.75
40788;BME280;26497;52.494;7.546;2022-09-09T03:05:18;100150.09;;;18.78;73.96
40788;BME280;26497;52.494;7.546;2022-09-09T03:07:45;100157.69;;;18.67;74.35
40788;BME280;26497;52.494;7.546;2022-09-09T03:10:12;100165.72;;;18.67;74.23
40788;BME280;26497;52.494;7.546;2022-09-09T03:12:38;100159.69;;;18.62;74.36
40788;BME280;26497;52.494;7.546;2022-09-09T03:15:07;100167.22;;;18.72;73.90
40788;BME280;26497;52.494;7.546;2022-09-09T03:17:34;100161.34;;;18.64;74.07
40788;BME280;26497;52.494;7.546;2022-09-09T03:20:01;100161.69;;;18.56;74.63
40788;BME280;26497;52.494;7.546;2022-09-09T03:22:29;100153.53;;;18.60;74.61
40788;BME280;26497;52.494;7.546;2022-09-09T03:24:56;100155.34;;;18.59;74.71
40788;BME280;26497;52.494;7.546;2022-09-09T03:27:23;100157.19;;;18.57;74.66
40788;BME280;26497;52.494;7.546;2022-09-09T03:29:50;100158.28;;;18.53;74.72
40788;BME280;26497;52.494;7.546;2022-09-09T03:32:18;100165.38;;;18.54;74.72
40788;BME280;26497;52.494;7.546;2022-09-09T03:34:47;100156.56;;;18.52;74.78
40788;BME280;26497;52.494;7.546;2022-09-09T03:37:15;100156.25;;;18.58;74.83
40788;BME280;26497;52.494;7.546;2022-09-09T03:39:44;100165.50;;;18.71;74.43
40788;BME280;26497;52.494;7.546;2022-09-09T03:42:12;100167.09;;;18.76;74.26
40788;BME280;26497;52.494;7.546;2022-09-09T03:44:39;100165.25;;;18.78;74.73
40788;BME280;26497;52.494;7.546;2022-09-09T03:47:07;100160.56;;;18.83;74.64
40788;BME280;26497;52.494;7.546;2022-09-09T03:49:34;100157.38;;;18.95;74.29
40788;BME280;26497;52.494;7.546;2022-09-09T03:52:01;100159.81;;;19.01;74.08
40788;BME280;26497;52.494;7.546;2022-09-09T03:54:28;100152.31;;;19.10;73.66
40788;BME280;26497;52.494;7.546;2022-09-09T03:56:56;100150.81;;;19.04;73.46
40788;BME280;26497;52.494;7.546;2022-09-09T03:59:23;100155.63;;;18.94;73.72
40788;BME280;26497;52.494;7.546;2022-09-09T04:01:50;100145.44;;;18.83;73.94
40788;BME280;26497;52.494;7.546;2022-09-09T04:04:17;100147.47;;;18.77;73.69
40788;BME280;26497;52.494;7.546;2022-09-09T04:06:45;100151.22;;;18.72;73.50
40788;BME280;26497;52.494;7.546;2022-09-09T04:09:13;100148.88;;;18.65;73.80
40788;BME280;26497;52.494;7.546;2022-09-09T04:11:40;100149.53;;;18.49;74.51
40788;BME280;26497;52.494;7.546;2022-09-09T04:14:08;100149.53;;;18.49;74.66
40788;BME280;26497;52.494;7.546;2022-09-09T04:16:35;100146.50;;;18.57;73.62
40788;BME280;26497;52.494;7.546;2022-09-09T04:19:03;100142.53;;;18.67;72.34
40788;BME280;26497;52.494;7.546;2022-09-09T04:21:32;100143.66;;;18.62;72.23
40788;BME280;26497;52.494;7.546;2022-09-09T04:23:58;100146.50;;;18.57;71.89
40788;BME280;26497;52.494;7.546;2022-09-09T04:26:25;100145.88;;;18.52;72.00
40788;BME280;26497;52.494;7.546;2022-09-09T04:28:52;100143.44;;;18.46;72.17
40788;BME280;26497;52.494;7.546;2022-09-09T04:31:21;100147.88;;;18.47;72.20
40788;BME280;26497;52.494;7.546;2022-09-09T04:33:49;100136.50;;;18.41;72.28
40788;BME280;26497;52.494;7.546;2022-09-09T04:36:16;100147.56;;;18.32;72.40
40788;BME280;26497;52.494;7.546;2022-09-09T04:38:43;100146.44;;;18.38;72.29
40788;BME280;26497;52.494;7.546;2022-09-09T04:41:10;100142.69;;;18.42;72.13
40788;BME280;26497;52.494;7.546;2022-09-09T04:43:38;100143.59;;;18.42;72.44
40788;BME280;26497;52.494;7.546;2022-09-09T04:46:05;100148.91;;;18.42;71.96
40788;BME280;26497;52.494;7.546;2022-09-09T04:48:33;100151.47;;;18.46;72.26
40788;BME280;26497;52.494;7.546;2022-09-09T04:51:02;100152.47;;;18.64;71.52
40788;BME280;26497;52.494;7.546;2022-09-09T04:53:30;100154.94;;;18.68;71.71
40788;BME280;26497;52.494;7.546;2022-09-09T04:56:04;100157.81;;;18.64;71.97
40788;BME280;26497;52.494;7.546;2022-09-09T04:58:31;100174.19;;;18.77;71.72
40788;BME280;26497;52.494;7.546;2022-09-09T05:01:06;100167.38;;;18.69;72.05
40788;BME280;26497;52.494;7.546;2022-09-09T05:03:34;100163.75;;;18.70;72.53
40788;BME280;26497;52.494;7.546;2022-09-09T05:06:06;100156.25;;;18.80;72.58
40788;BME280;26497;52.494;7.546;2022-09-09T05:08:34;100157.97;;;18.81;72.62
40788;BME280;26497;52.494;7.546;2022-09-09T05:11:01;100155.69;;;18.72;72.53
40788;BME280;26497;52.494;7.546;2022-09-09T05:13:28;100156.94;;;18.63;72.56
40788;BME280;26497;52.494;7.546;2022-09-09T05:15:57;100155.06;;;18.65;72.49
40788;BME280;26497;52.494;7.546;2022-09-09T05:18:24;100161.84;;;18.74;72.37
40788;BME280;26497;52.494;7.546;2022-09-09T05:20:52;100158.38;;;18.72;72.67
40788;BME280;26497;52.494;7.546;2022-09-09T05:23:19;100167.38;;;18.69;72.77
40788;BME280;26497;52.494;7.546;2022-09-09T05:25:55;100159.44;;;18.68;73.44
40788;BME280;26497;52.494;7.546;2022-09-09T05:28:22;100160.66;;;18.81;72.93
40788;BME280;26497;52.494;7.546;2022-09-09T05:30:55;100158.44;;;18.91;72.71
40788;BME280;26497;52.494;7.546;2022-09-09T05:33:23;100155.47;;;18.99;73.06
40788;BME280;26497;52.494;7.546;2022-09-09T05:35:57;100160.44;;;19.08;74.02
40788;BME280;26497;52.494;7.546;2022-09-09T05:38:24;100160.09;;;19.35;74.40
40788;BME280;26497;52.494;7.546;2022-09-09T05:40:51;100160.50;;;19.47;74.12
40788;BME280;26497;52.494;7.546;2022-09-09T05:43:18;100154.28;;;19.46;75.89
40788;BME280;26497;52.494;7.546;2022-09-09T05:45:45;100158.00;;;19.82;76.13
40788;BME280;26497;52.494;7.546;2022-09-09T05:48:13;100163.66;;;20.14;76.12
40788;BME280;26497;52.494;7.546;2022-09-09T05:50:40;100154.75;;;20.50;76.18
40788;BME280;26497;52.494;7.546;2022-09-09T05:53:09;100166.50;;;20.65;75.86
40788;BME280;26497;52.494;7.546;2022-09-09T05:55:36;100155.00;;;20.63;75.00
40788;BME280;26497;52.494;7.546;2022-09-09T05:58:03;100165.94;;;20.76;75.01
40788;BME280;26497;52.494;7.546;2022-09-09T06:00:30;100160.59;;;20.76;74.33
40788;BME280;26497;52.494;7.546;2022-09-09T06:02:57;100150.53;;;20.81;73.73
40788;BME280;26497;52.494;7.546;2022-09-09T06:05:24;100149.38;;;20.87;74.43
40788;BME280;26497;52.494;7.546;2022-09-09T06:07:53;100148.31;;;20.89;74.09
40788;BME280;26497;52.494;7.546;2022-09-09T06:10:21;100153.16;;;21.00;74.86
40788;BME280;26497;52.494;7.546;2022-09-09T06:12:48;100151.56;;;20.96;73.88
40788;BME280;26497;52.494;7.546;2022-09-09T06:15:15;100157.09;;;21.11;76.46
40788;BME280;26497;52.494;7.546;2022-09-09T06:17:42;100154.88;;;21.01;74.65
40788;BME280;26497;52.494;7.546;2022-09-09T06:20:10;100149.41;;;21.20;76.90
40788;BME280;26497;52.494;7.546;2022-09-09T06:22:39;100151.97;;;22.05;80.39
40788;BME280;26497;52.494;7.546;2022-09-09T06:25:07;100149.59;;;22.63;79.22
40788;BME280;26497;52.494;7.546;2022-09-09T06:27:36;100147.00;;;23.21;73.06
40788;BME280;26497;52.494;7.546;2022-09-09T06:30:03;100144.91;;;24.26;75.24
40788;BME280;26497;52.494;7.546;2022-09-09T06:32:30;100146.66;;;25.08;66.70
40788;BME280;26497;52.494;7.546;2022-09-09T06:35:00;100144.94;;;25.46;66.18
40788;BME280;26497;52.494;7.546;2022-09-09T06:37:27;100142.44;;;25.69;61.64
40788;BME280;26497;52.494;7.546;2022-09-09T06:39:54;100127.44;;;25.13;58.63
40788;BME280;26497;52.494;7.546;2022-09-09T06:42:21;100139.31;;;24.29;60.04
40788;BME280;26497;52.494;7.546;2022-09-09T06:44:49;100142.59;;;24.07;62.18
40788;BME280;26497;52.494;7.546;2022-09-09T06:47:17;100142.22;;;23.70;61.20
40788;BME280;26497;52.494;7.546;2022-09-09T06:49:44;100142.38;;;22.94;62.84
40788;BME280;26497;52.494;7.546;2022-09-09T06:52:11;100137.88;;;22.64;63.81
40788;BME280;26497;52.494;7.546;2022-09-09T06:54:38;100146.56;;;22.37;64.14
40788;BME280;26497;52.494;7.546;2022-09-09T06:57:05;100151.94;;;22.37;63.92
40788;BME280;26497;52.494;7.546;2022-09-09T06:59:33;100145.72;;;22.21;65.01
40788;BME280;26497;52.494;7.546;2022-09-09T07:02:01;100148.34;;;22.22;65.41
40788;BME280;26497;52.494;7.546;2022-09-09T07:04:28;100154.31;;;21.79;65.39
40788;BME280;26497;52.494;7.546;2022-09-09T07:06:55;100163.06;;;21.83;65.98
40788;BME280;26497;52.494;7.546;2022-09-09T07:09:22;100153.88;;;21.71;66.77
40788;BME280;26497;52.494;7.546;2022-09-09T07:11:50;100160.59;;;21.62;66.81
40788;BME280;26497;52.494;7.546;2022-09-09T07:14:18;100165.31;;;21.91;67.20
40788;BME280;26497;52.494;7.546;2022-09-09T07:16:45;100166.09;;;21.93;66.07
40788;BME280;26497;52.494;7.546;2022-09-09T07:19:14;100172.44;;;22.08;64.96
40788;BME280;26497;52.494;7.546;2022-09-09T07:21:41;100172.06;;;21.98;66.64
40788;BME280;26497;52.494;7.546;2022-09-09T07:24:10;100165.47;;;22.20;65.31
40788;BME280;26497;52.494;7.546;2022-09-09T07:26:38;100161.31;;;22.30;65.15
40788;BME280;26497;52.494;7.546;2022-09-09T07:29:06;100161.19;;;22.94;65.56
40788;BME280;26497;52.494;7.546;2022-09-09T07:31:34;100162.63;;;23.45;61.83
40788;BME280;26497;52.494;7.546;2022-09-09T07:34:02;100156.25;;;23.90;61.50
40788;BME280;26497;52.494;7.546;2022-09-09T07:36:32;100159.66;;;24.48;57.25
40788;BME280;26497;52.494;7.546;2022-09-09T07:39:00;100160.56;;;25.41;54.48
40788;BME280;26497;52.494;7.546;2022-09-09T07:41:42;100159.91;;;26.13;52.23
40788;BME280;26497;52.494;7.546;2022-09-09T07:44:11;100151.84;;;26.38;52.06
40788;BME280;26497;52.494;7.546;2022-09-09T07:46:38;100153.69;;;26.37;50.25
40788;BME280;26497;52.494;7.546;2022-09-09T07:49:07;100154.59;;;26.25;48.34
40788;BME280;26497;52.494;7.546;2022-09-09T07:51:37;100162.81;;;26.10;49.58
40788;BME280;26497;52.494;7.546;2022-09-09T07:54:06;100158.97;;;26.39;48.74
40788;BME280;26497;52.494;7.546;2022-09-09T07:56:35;100157.53;;;26.22;49.58
40788;BME280;26497;52.494;7.546;2022-09-09T07:59:03;100158.63;;;26.06;49.20
40788;BME280;26497;52.494;7.546;2022-09-09T08:01:33;100161.31;;;26.19;50.09
40788;BME280;26497;52.494;7.546;2022-09-09T08:04:04;100157.28;;;26.73;48.90
40788;BME280;26497;52.494;7.546;2022-09-09T08:06:35;100164.41;;;27.10;46.58
40788;BME280;26497;52.494;7.546;2022-09-09T08:09:04;100163.69;;;27.19;46.41
40788;BME280;26497;52.494;7.546;2022-09-09T08:11:31;100171.06;;;27.29;45.55
40788;BME280;26497;52.494;7.546;2022-09-09T08:13:58;100162.81;;;27.07;45.87
40788;BME280;26497;52.494;7.546;2022-09-09T08:16:27;100164.88;;;26.68;46.31
40788;BME280;26497;52.494;7.546;2022-09-09T08:18:54;100162.81;;;26.47;46.90
40788;BME280;26497;52.494;7.546;2022-09-09T08:21:22;100168.97;;;26.25;48.12
40788;BME280;26497;52.494;7.546;2022-09-09T08:23:51;100155.69;;;26.46;47.70
40788;BME280;26497;52.494;7.546;2022-09-09T08:26:20;100164.09;;;26.90;46.21
40788;BME280;26497;52.494;7.546;2022-09-09T08:28:49;100154.00;;;27.62;45.26
40788;BME280;26497;52.494;7.546;2022-09-09T08:31:18;100149.28;;;27.99;44.11
40788;BME280;26497;52.494;7.546;2022-09-09T08:33:46;100163.81;;;28.86;41.99
40788;BME280;26497;52.494;7.546;2022-09-09T08:36:14;100155.28;;;29.64;41.07
40788;BME280;26497;52.494;7.546;2022-09-09T08:38:42;100149.63;;;30.77;37.68
40788;BME280;26497;52.494;7.546;2022-09-09T08:41:17;100153.63;;;30.72;37.24
40788;BME280;26497;52.494;7.546;2022-09-09T08:44:00;100159.06;;;29.82;38.06
40788;BME280;26497;52.494;7.546;2022-09-09T08:46:32;100163.03;;;30.09;38.62
40788;BME280;26497;52.494;7.546;2022-09-09T08:49:03;100163.06;;;29.47;39.00
40788;BME280;26497;52.494;7.546;2022-09-09T08:51:33;100168.81;;;29.54;39.35
40788;BME280;26497;52.494;7.546;2022-09-09T08:54:01;100167.91;;;29.43;39.43
40788;BME280;26497;52.494;7.546;2022-09-09T08:56:31;100171.34;;;28.49;40.50
40788;BME280;26497;52.494;7.546;2022-09-09T08:59:01;100171.84;;;27.88;42.39
40788;BME280;26497;52.494;7.546;2022-09-09T09:01:45;100177.34;;;27.41;43.76
40788;BME280;26497;52.494;7.546;2022-09-09T09:04:41;100181.13;;;27.04;44.50
40788;BME280;26497;52.494;7.546;2022-09-09T09:07:19;100166.19;;;26.62;45.33
40788;BME280;26497;52.494;7.546;2022-09-09T09:09:53;100185.56;;;26.45;45.69
40788;BME280;26497;52.494;7.546;2022-09-09T09:12:25;100176.22;;;26.49;46.17
40788;BME280;26497;52.494;7.546;2022-09-09T09:14:55;100183.81;;;26.44;45.89
40788;BME280;26497;52.494;7.546;2022-09-09T09:17:25;100182.13;;;26.54;46.11
40788;BME280;26497;52.494;7.546;2022-09-09T09:19:53;100189.91;;;26.34;46.00
40788;BME280;26497;52.494;7.546;2022-09-09T09:22:21;100190.28;;;26.04;47.28
40788;BME280;26497;52.494;7.546;2022-09-09T09:24:52;100186.47;;;25.69;47.64
40788;BME280;26497;52.494;7.546;2022-09-09T09:27:25;100188.66;;;25.51;48.03
40788;BME280;26497;52.494;7.546;2022-09-09T09:29:56;100186.16;;;25.74;48.26
40788;BME280;26497;52.494;7.546;2022-09-09T09:32:24;100192.00;;;25.68;48.27
40788;BME280;26497;52.494;7.546;2022-09-09T09:34:51;100193.59;;;25.70;48.06
40788;BME280;26497;52.494;7.546;2022-09-09T09:37:26;100178.44;;;26.55;46.84
40788;BME280;26497;52.494;7.546;2022-09-09T09:39:53;100186.03;;;27.10;43.95
40788;BME280;26497;52.494;7.546;2022-09-09T09:42:20;100174.97;;;26.77;43.77
40788;BME280;26497;52.494;7.546;2022-09-09T09:44:47;100175.28;;;26.61;44.67
40788;BME280;26497;52.494;7.546;2022-09-09T09:47:17;100186.09;;;26.61;44.39
40788;BME280;26497;52.494;7.546;2022-09-09T09:49:53;100179.59;;;26.64;44.14
40788;BME280;26497;52.494;7.546;2022-09-09T09:52:23;100175.63;;;26.57;45.30
40788;BME280;26497;52.494;7.546;2022-09-09T09:54:51;100185.06;;;26.75;44.85
40788;BME280;26497;52.494;7.546;2022-09-09T09:57:22;100177.38;;;27.86;41.82
40788;BME280;26497;52.494;7.546;2022-09-09T10:00:00;100173.34;;;29.43;38.57
40788;BME280;26497;52.494;7.546;2022-09-09T10:02:37;100172.00;;;29.59;37.31
40788;BME280;26497;52.494;7.546;2022-09-09T10:05:12;100174.63;;;29.39;37.56
40788;BME280;26497;52.494;7.546;2022-09-09T10:07:40;100180.31;;;29.67;36.67
40788;BME280;26497;52.494;7.546;2022-09-09T10:10:12;100170.31;;;30.09;35.27
40788;BME280;26497;52.494;7.546;2022-09-09T10:12:46;100172.06;;;30.20;34.73
40788;BME280;26497;52.494;7.546;2022-09-09T10:15:25;100166.66;;;29.48;35.30
40788;BME280;26497;52.494;7.546;2022-09-09T10:17:58;100164.84;;;29.58;35.63
40788;BME280;26497;52.494;7.546;2022-09-09T10:20:32;100166.44;;;30.01;35.52
40788;BME280;26497;52.494;7.546;2022-09-09T10:23:08;100159.59;;;31.06;33.78
40788;BME280;26497;52.494;7.546;2022-09-09T10:25:49;100155.09;;;31.34;33.12
40788;BME280;26497;52.494;7.546;2022-09-09T10:28:37;100162.13;;;31.37;33.20
40788;BME280;26497;52.494;7.546;2022-09-09T10:31:16;100156.00;;;31.25;32.63
40788;BME280;26497;52.494;7.546;2022-09-09T10:33:50;100165.38;;;30.73;34.80
40788;BME280;26497;52.494;7.546;2022-09-09T10:36:19;100159.78;;;29.01;41.09
40788;BME280;26497;52.494;7.546;2022-09-09T10:38:48;100174.81;;;27.62;44.20
40788;BME280;26497;52.494;7.546;2022-09-09T10:41:19;100168.22;;;26.47;47.35
40788;BME280;26497;52.494;7.546;2022-09-09T10:44:12;100165.44;;;25.61;47.71
40788;BME280;26497;52.494;7.546;2022-09-09T10:47:05;100162.50;;;25.00;47.44
40788;BME280;26497;52.494;7.546;2022-09-09T10:49:52;100172.16;;;24.49;51.66
40788;BME280;26497;52.494;7.546;2022-09-09T10:52:28;100174.78;;;24.09;55.59
40788;BME280;26497;52.494;7.546;2022-09-09T10:54:59;100181.94;;;23.52;59.40
40788;BME280;26497;52.494;7.546;2022-09-09T10:57:31;100181.19;;;23.64;61.66
40788;BME280;26497;52.494;7.546;2022-09-09T11:00:05;100180.59;;;24.85;58.84
40788;BME280;26497;52.494;7.546;2022-09-09T11:02:34;100166.13;;;26.75;54.43
40788;BME280;26497;52.494;7.546;2022-09-09T11:05:04;100159.78;;;28.80;49.76
40788;BME280;26497;52.494;7.546;2022-09-09T11:07:35;100152.78;;;29.92;41.16
40788;BME280;26497;52.494;7.546;2022-09-09T11:10:06;100144.59;;;30.52;39.65
40788;BME280;26497;52.494;7.546;2022-09-09T11:12:34;100146.44;;;30.91;37.25
40788;BME280;26497;52.494;7.546;2022-09-09T11:15:06;100146.53;;;31.29;36.08
40788;BME280;26497;52.494;7.546;2022-09-09T11:17:35;100136.69;;;31.08;35.43
40788;BME280;26497;52.494;7.546;2022-09-09T11:20:11;100143.00;;;30.50;36.40
40788;BME280;26497;52.494;7.546;2022-09-09T11:22:39;100154.06;;;30.87;35.33
40788;BME280;26497;52.494;7.546;2022-09-09T11:25:13;100149.50;;;30.78;34.75
40788;BME280;26497;52.494;7.546;2022-09-09T11:27:45;100144.31;;;30.45;35.09
40788;BME280;26497;52.494;7.546;2022-09-09T11:30:18;100152.22;;;30.78;33.22
40788;BME280;26497;52.494;7.546;2022-09-09T11:35:52;100152.56;;;31.32;32.68
40788;BME280;26497;52.494;7.546;2022-09-09T11:38:26;100140.59;;;31.81;31.50
40788;BME280;26497;52.494;7.546;2022-09-09T11:40:57;100138.09;;;31.60;31.35
40788;BME280;26497;52.494;7.546;2022-09-09T11:43:30;100137.97;;;31.89;30.53
40788;BME280;26497;52.494;7.546;2022-09-09T11:45:59;100149.41;;;31.75;29.05
40788;BME280;26497;52.494;7.546;2022-09-09T11:48:31;100138.78;;;32.18;28.95
40788;BME280;26497;52.494;7.546;2022-09-09T11:51:05;100151.53;;;32.45;28.37
40788;BME280;26497;52.494;7.546;2022-09-09T11:53:34;100141.09;;;32.41;27.98
40788;BME280;26497;52.494;7.546;2022-09-09T11:56:11;100140.66;;;32.72;26.86
40788;BME280;26497;52.494;7.546;2022-09-09T11:58:44;100147.41;;;32.41;27.60
40788;BME280;26497;52.494;7.546;2022-09-09T12:01:41;100153.66;;;32.05;28.24
40788;BME280;26497;52.494;7.546;2022-09-09T12:04:15;100148.09;;;31.69;29.91
40788;BME280;26497;52.494;7.546;2022-09-09T12:06:45;100154.22;;;31.43;29.56
40788;BME280;26497;52.494;7.546;2022-09-09T12:09:22;100154.44;;;31.02;29.76
40788;BME280;26497;52.494;7.546;2022-09-09T12:11:50;100148.25;;;31.30;30.21
40788;BME280;26497;52.494;7.546;2022-09-09T12:14:22;100138.94;;;31.32;28.96
40788;BME280;26497;52.494;7.546;2022-09-09T12:16:49;100143.66;;;31.30;30.00
40788;BME280;26497;52.494;7.546;2022-09-09T12:19:18;100143.94;;;32.21;28.65
40788;BME280;26497;52.494;7.546;2022-09-09T12:21:51;100134.63;;;32.42;28.44
40788;BME280;26497;52.494;7.546;2022-09-09T12:24:25;100137.94;;;32.72;27.81
40788;BME280;26497;52.494;7.546;2022-09-09T12:26:58;100146.94;;;32.46;28.56
40788;BME280;26497;52.494;7.546;2022-09-09T12:29:31;100137.84;;;32.09;28.27
40788;BME280;26497;52.494;7.546;2022-09-09T12:32:05;100138.78;;;31.72;28.93
40788;BME280;26497;52.494;7.546;2022-09-09T12:34:39;100127.22;;;31.88;28.98
40788;BME280;26497;52.494;7.546;2022-09-09T12:37:14;100136.25;;;31.51;29.16
40788;BME280;26497;52.494;7.546;2022-09-09T12:39:45;100119.22;;;31.48;29.00
40788;BME280;26497;52.494;7.546;2022-09-09T12:42:16;100123.03;;;31.66;28.84
40788;BME280;26497;52.494;7.546;2022-09-09T12:44:51;100124.00;;;32.57;27.13
40788;BME280;26497;52.494;7.546;2022-09-09T12:47:18;100120.59;;;32.81;27.20
40788;BME280;26497;52.494;7.546;2022-09-09T12:49:46;100118.88;;;33.24;25.30
40788;BME280;26497;52.494;7.546;2022-09-09T12:52:18;100115.88;;;33.36;26.41
40788;BME280;26497;52.494;7.546;2022-09-09T12:54:47;100120.25;;;33.29;25.43
40788;BME280;26497;52.494;7.546;2022-09-09T12:57:16;100123.81;;;33.47;25.30
40788;BME280;26497;52.494;7.546;2022-09-09T12:59:44;100113.03;;;32.30;26.29
40788;BME280;26497;52.494;7.546;2022-09-09T13:02:18;100123.09;;;31.46;27.83
40788;BME280;26497;52.494;7.546;2022-09-09T13:04:45;100121.56;;;30.66;29.07
40788;BME280;26497;52.494;7.546;2022-09-09T13:07:13;100121.84;;;30.34;29.74
40788;BME280;26497;52.494;7.546;2022-09-09T13:09:43;100122.13;;;30.50;30.24